Time;durP1;ratioP1;P1;durP2;ratioP2;P2;SDS_P1;SDS_P2;PMS_P1;PMS_P2;Temp;Humidity;BMP_temperature;BMP_pressure;BME280_temperature;BME280_humidity;BME280_pressure;Samples;Min_cycle;Max_cycle;Signal;HPM_P1;HPM_P2
2022/06/05 04:00:16;;;;;;;6.73;6.13;;;17.50;96.30;;;;;;6041024;23;20365;-76
2022/06/05 04:02:42;;;;;;;6.60;6.10;;;17.50;96.30;;;;;;4991833;28;20519;-75
2022/06/05 04:05:10;;;;;;;7.87;6.60;;;17.90;96.30;;;;;;4993078;28;20988;-75
2022/06/05 04:07:36;;;;;;;7.00;6.40;;;18.40;96.30;;;;;;4992245;28;20205;-75
2022/06/05 04:10:02;;;;;;;6.90;6.40;;;19.20;96.30;;;;;;4975536;28;20825;-76
2022/06/05 04:12:27;;;;;;;5.67;5.17;;;19.20;96.30;;;;;;4992230;28;20190;-76
2022/06/05 04:14:53;;;;;;;7.87;5.40;;;19.90;96.30;;;;;;4993540;28;20184;-78
2022/06/05 04:17:18;;;;;;;5.87;5.27;;;20.00;96.30;;;;;;4993163;28;20177;-77
2022/06/05 04:19:44;;;;;;;6.10;5.50;;;19.60;96.30;;;;;;4992215;28;20169;-78
2022/06/05 04:22:09;;;;;;;6.40;5.47;;;20.30;96.30;;;;;;4991788;28;21027;-78
2022/06/05 04:24:36;;;;;;;11.00;6.10;;;21.00;96.30;;;;;;4992213;28;20181;-77
2022/06/05 04:27:02;;;;;;;8.30;7.53;;;21.50;96.30;;;;;;4992673;28;20268;-78
2022/06/05 04:29:27;;;;;;;7.30;6.63;;;21.80;96.30;;;;;;4991905;28;20455;-78
2022/06/05 04:31:53;;;;;;;7.17;6.10;;;21.90;96.30;;;;;;4992546;28;20344;-77
2022/06/05 04:34:21;;;;;;;6.43;5.20;;;21.80;95.90;;;;;;4992520;28;20177;-77
2022/06/05 04:36:47;;;;;;;5.70;5.20;;;22.00;94.90;;;;;;4992527;28;20177;-77
2022/06/05 04:39:13;;;;;;;5.53;4.70;;;22.30;94.40;;;;;;4991864;28;20404;-77
2022/06/05 04:41:40;;;;;;;5.30;4.90;;;22.50;93.20;;;;;;4992464;28;20203;-77
2022/06/05 04:44:07;;;;;;;5.27;4.87;;;22.30;95.00;;;;;;4992431;28;20484;-77
2022/06/05 04:46:34;;;;;;;7.80;4.97;;;22.40;96.10;;;;;;4992256;28;20416;-77
2022/06/05 04:48:59;;;;;;;5.73;5.23;;;22.40;94.90;;;;;;4991921;28;20434;-78
2022/06/05 04:51:25;;;;;;;5.40;4.33;;;22.10;94.80;;;;;;4992279;28;20971;-77
2022/06/05 04:53:53;;;;;;;6.53;3.90;;;22.00;95.60;;;;;;4992331;28;20220;-77
2022/06/05 04:56:22;;;;;;;4.63;4.23;;;22.80;93.30;;;;;;4992394;28;20204;-78
2022/06/05 04:58:48;;;;;;;5.10;4.60;;;23.00;91.70;;;;;;4991697;28;20419;-77
2022/06/05 05:01:23;;;;;;;4.73;4.30;;;23.50;90.50;;;;;;4992192;28;20922;-77
2022/06/05 05:03:55;;;;;;;4.93;4.43;;;23.50;90.40;;;;;;4992357;28;20470;-78
2022/06/05 05:06:22;;;;;;;4.50;4.10;;;23.60;90.90;;;;;;4992312;28;21026;-77
2022/06/05 05:08:48;;;;;;;4.60;4.20;;;23.80;90.60;;;;;;4991661;28;20780;-77
2022/06/05 05:11:14;;;;;;;4.50;4.10;;;23.20;91.40;;;;;;4991979;28;20455;-77
2022/06/05 05:13:41;;;;;;;6.83;4.53;;;23.80;91.60;;;;;;4992260;28;20272;-77
2022/06/05 05:16:06;;;;;;;6.10;3.97;;;23.70;91.10;;;;;;4992204;28;20412;-77
2022/06/05 05:18:32;;;;;;;4.83;4.43;;;24.40;89.70;;;;;;4991500;28;20461;-77
2022/06/05 05:21:16;;;;;;;5.60;4.97;;;24.60;88.10;;;;;;4992070;28;20192;-77
2022/06/05 05:23:44;;;;;;;5.67;4.37;;;25.50;85.90;;;;;;4995078;28;20183;-78
2022/06/05 05:26:15;;;;;;;5.50;4.60;;;25.50;86.90;;;;;;4995749;28;20503;-77
2022/06/05 05:28:42;;;;;;;4.60;4.20;;;25.40;86.20;;;;;;4995172;28;20416;-77
2022/06/05 05:31:10;;;;;;;4.60;4.17;;;26.20;83.80;;;;;;4995552;28;20452;-78
2022/06/05 05:33:37;;;;;;;5.30;3.70;;;26.20;83.10;;;;;;4995645;28;20408;-78
2022/06/05 05:36:03;;;;;;;4.20;3.90;;;25.90;84.20;;;;;;4995651;28;20408;-77
2022/06/05 05:38:28;;;;;;;5.73;3.80;;;24.90;86.00;;;;;;4994924;28;20896;-77
2022/06/05 05:43:38;;;;;;;3.57;3.30;;;24.50;88.60;;;;;;4996203;28;20323;-77
2022/06/05 05:46:08;;;;;;;4.17;3.70;;;24.10;88.40;;;;;;4991763;28;20471;-77
2022/06/05 05:48:34;;;;;;;5.63;3.70;;;23.30;91.40;;;;;;4994807;28;20173;-77
2022/06/05 05:50:59;;;;;;;4.47;3.80;;;24.30;89.30;;;;;;4995299;28;20463;-77
2022/06/05 05:53:25;;;;;;;10.37;4.57;;;26.30;84.90;;;;;;4995661;28;20663;-77
2022/06/05 05:55:50;;;;;;;5.97;4.13;;;26.60;83.30;;;;;;4995313;28;20184;-78
2022/06/05 05:58:16;;;;;;;4.43;4.10;;;26.60;83.50;;;;;;4994728;28;20257;-77
2022/06/05 06:00:41;;;;;;;3.90;3.60;;;27.30;81.30;;;;;;4995066;28;20668;-78
2022/06/05 06:03:07;;;;;;;4.40;4.00;;;27.50;80.70;;;;;;4995181;28;20181;-77
2022/06/05 06:05:32;;;;;;;3.87;3.57;;;26.40;83.20;;;;;;4995134;28;20197;-77
2022/06/05 06:07:58;;;;;;;5.00;3.30;;;26.30;83.70;;;;;;4994709;28;20172;-77
2022/06/05 06:10:23;;;;;;;3.87;3.57;;;26.40;83.70;;;;;;4983387;28;20268;-77
2022/06/05 06:12:49;;;;;;;4.67;4.07;;;27.20;82.20;;;;;;4966338;28;20182;-77
2022/06/05 06:15:14;;;;;;;3.83;3.53;;;27.30;81.80;;;;;;4975802;28;20173;-77
2022/06/05 06:17:40;;;;;;;4.60;3.73;;;27.30;81.80;;;;;;4977337;28;20256;-77
2022/06/05 06:20:06;;;;;;;4.80;4.10;;;27.60;81.00;;;;;;4992057;28;20212;-76
2022/06/05 06:22:32;;;;;;;4.67;4.20;;;27.20;83.10;;;;;;4994628;28;20676;-77
2022/06/05 06:24:58;;;;;;;3.90;3.60;;;26.20;86.00;;;;;;4994972;28;20416;-78
2022/06/05 06:27:23;;;;;;;3.80;3.50;;;26.10;86.40;;;;;;4976948;28;20427;-76
2022/06/05 06:29:49;;;;;;;3.77;3.47;;;26.90;85.50;;;;;;4994212;28;20188;-77
2022/06/05 06:32:14;;;;;;;4.77;4.37;;;26.60;85.80;;;;;;4994342;28;20707;-77
2022/06/05 06:34:40;;;;;;;7.30;4.27;;;26.10;86.40;;;;;;4993923;28;20205;-77
2022/06/05 06:37:05;;;;;;;4.63;4.00;;;25.40;88.70;;;;;;4994361;28;20236;-77
2022/06/05 06:39:31;;;;;;;5.03;4.13;;;25.50;88.90;;;;;;4993889;28;20180;-77
2022/06/05 06:41:56;;;;;;;3.73;3.43;;;25.20;90.60;;;;;;4994491;28;20538;-77
2022/06/05 06:44:22;;;;;;;7.00;3.93;;;25.20;89.10;;;;;;4994509;28;20177;-76
2022/06/05 06:46:47;;;;;;;8.53;3.90;;;24.70;91.90;;;;;;4990199;28;20181;-76
2022/06/05 06:49:13;;;;;;;4.60;4.10;;;25.50;90.30;;;;;;4966773;28;20253;-75
2022/06/05 06:51:38;;;;;;;6.10;5.00;;;24.60;91.90;;;;;;4977781;28;20218;-75
2022/06/05 06:54:04;;;;;;;5.53;4.50;;;24.10;93.40;;;;;;4979894;28;20260;-75
2022/06/05 06:56:32;;;;;;;5.87;4.93;;;24.30;95.40;;;;;;4986498;28;20186;-76
2022/06/05 06:59:00;;;;;;;4.87;4.47;;;24.70;93.80;;;;;;4977960;28;20177;-76
2022/06/05 07:01:26;;;;;;;5.27;4.77;;;25.00;91.90;;;;;;4977525;28;20453;-75
2022/06/05 07:03:52;;;;;;;6.63;5.40;;;24.80;92.10;;;;;;4977375;28;20877;-76
2022/06/05 07:06:17;;;;;;;5.10;4.63;;;24.30;94.40;;;;;;4976737;28;20473;-76
2022/06/05 07:08:44;;;;;;;5.27;4.70;;;24.00;94.50;;;;;;4981641;28;20185;-76
2022/06/05 07:11:11;;;;;;;4.47;4.13;;;23.80;93.90;;;;;;4996640;28;20233;-76
2022/06/05 07:13:37;;;;;;;11.97;5.30;;;23.80;93.50;;;;;;4996160;28;20413;-76
2022/06/05 07:16:06;;;;;;;4.83;4.43;;;23.80;95.80;;;;;;4993683;28;20809;-76
2022/06/05 07:18:31;;;;;;;10.53;4.90;;;24.90;94.20;;;;;;4987251;28;20429;-77
2022/06/05 07:20:57;;;;;;;4.67;3.97;;;25.20;90.40;;;;;;4965139;28;20488;-78
2022/06/05 07:23:23;;;;;;;5.07;4.60;;;24.70;92.60;;;;;;4969362;28;20181;-78
2022/06/05 07:25:50;;;;;;;4.40;4.03;;;24.90;92.80;;;;;;4984169;28;20658;-79
2022/06/05 07:28:17;;;;;;;5.43;4.13;;;25.50;89.00;;;;;;4985453;28;20189;-78
2022/06/05 07:30:47;;;;;;;6.90;3.90;;;24.50;91.90;;;;;;4988687;28;20983;-78
2022/06/05 07:33:14;;;;;;;5.03;4.10;;;25.50;91.40;;;;;;4989423;28;20479;-78
2022/06/05 07:35:41;;;;;;;4.70;3.67;;;25.20;91.30;;;;;;4990612;28;20431;-79
2022/06/05 07:38:07;;;;;;;4.57;4.17;;;25.70;89.70;;;;;;4977962;28;20570;-80
2022/06/05 07:40:41;;;;;;;11.83;4.20;;;25.30;88.20;;;;;;4995746;28;20491;-78
2022/06/05 07:43:09;;;;;;;4.20;3.90;;;24.70;91.40;;;;;;4995204;28;20258;-78
2022/06/05 07:45:35;;;;;;;4.57;3.73;;;25.00;91.10;;;;;;4994112;28;20475;-79
2022/06/05 07:48:00;;;;;;;4.50;4.10;;;25.10;90.00;;;;;;4993168;28;20444;-78
2022/06/05 07:50:26;;;;;;;7.60;4.30;;;24.90;90.90;;;;;;4993986;28;20220;-79
2022/06/05 07:55:36;;;;;;;4.63;4.20;;;25.00;90.80;;;;;;4977470;28;20184;-80
2022/06/05 07:58:01;;;;;;;4.47;4.07;;;25.20;91.20;;;;;;4974754;28;20862;-78
2022/06/05 08:00:27;;;;;;;4.47;3.57;;;25.50;92.00;;;;;;4975519;28;20182;-80
2022/06/05 08:02:52;;;;;;;4.20;3.80;;;25.30;90.50;;;;;;4992062;28;20188;-80
2022/06/05 08:05:18;;;;;;;4.60;4.20;;;25.60;88.40;;;;;;4995088;28;20181;-78
2022/06/05 08:07:43;;;;;;;3.93;3.63;;;25.40;88.60;;;;;;4994002;28;20255;-78
2022/06/05 08:10:09;;;;;;;4.93;4.13;;;25.50;90.90;;;;;;4993967;28;20665;-78
2022/06/05 08:12:35;;;;;;;9.53;4.67;;;25.20;91.20;;;;;;4970312;28;20213;-79
2022/06/05 08:15:08;;;;;;;4.47;4.03;;;24.90;92.70;;;;;;4992714;28;20225;-78
2022/06/05 08:17:34;;;;;;;5.80;3.97;;;24.40;93.20;;;;;;4993362;28;20415;-79
2022/06/05 08:20:00;;;;;;;5.00;4.50;;;24.70;92.90;;;;;;4993693;28;20424;-78
2022/06/05 08:22:26;;;;;;;4.33;3.93;;;24.30;91.60;;;;;;4992870;28;20197;-79
2022/06/05 08:24:52;;;;;;;6.53;4.27;;;23.40;96.00;;;;;;4992814;28;20528;-78
2022/06/05 08:27:20;;;;;;;7.63;3.97;;;23.60;95.50;;;;;;4990460;28;20420;-79
2022/06/05 08:29:46;;;;;;;4.17;3.70;;;23.90;93.90;;;;;;4987052;28;20559;-79
2022/06/05 08:32:13;;;;;;;9.20;4.23;;;24.00;93.80;;;;;;4993209;28;20447;-79
2022/06/05 08:34:39;;;;;;;7.60;3.87;;;24.50;93.10;;;;;;4976767;28;20256;-78
2022/06/05 08:43:04;;;;;;;4.57;3.53;;;24.90;90.50;;;;;;4992396;28;20943;-77
2022/06/05 08:46:00;;;;;;;3.90;3.60;;;25.50;88.70;;;;;;4989578;28;20424;-77
2022/06/05 08:48:32;;;;;;;5.70;3.37;;;25.10;88.60;;;;;;4977657;28;20775;-77
2022/06/05 08:51:19;;;;;;;4.93;4.20;;;25.10;89.00;;;;;;4992015;28;20456;-77
2022/06/05 08:54:04;;;;;;;4.80;3.70;;;24.70;89.50;;;;;;4992330;28;20405;-77
2022/06/05 08:56:39;;;;;;;8.57;4.10;;;24.60;89.20;;;;;;4992276;28;20737;-78
2022/06/05 08:59:21;;;;;;;4.27;3.87;;;24.70;89.80;;;;;;4994814;28;20416;-78
2022/06/05 09:01:49;;;;;;;9.10;3.63;;;25.50;88.90;;;;;;4984855;28;20590;-77
2022/06/05 09:04:24;;;;;;;8.83;3.77;;;25.30;87.00;;;;;;4982339;28;20952;-78
2022/06/05 09:06:59;;;;;;;4.20;3.80;;;25.10;87.00;;;;;;4994372;28;20411;-77
2022/06/05 09:09:28;;;;;;;3.67;3.33;;;24.80;89.30;;;;;;4980524;28;20421;-76
2022/06/05 09:12:17;;;;;;;4.80;3.73;;;25.20;87.50;;;;;;4976390;28;20492;-77
2022/06/05 09:15:00;;;;;;;3.83;3.53;;;25.00;88.40;;;;;;4976434;28;20471;-77
2022/06/05 09:17:27;;;;;;;6.93;3.50;;;24.60;87.00;;;;;;4978127;28;20405;-78
2022/06/05 09:19:56;;;;;;;4.87;4.37;;;25.30;89.90;;;;;;4963980;28;20428;-77
2022/06/05 09:22:32;;;;;;;3.97;3.30;;;26.20;86.80;;;;;;4979808;28;20444;-76
2022/06/05 09:25:21;;;;;;;5.13;3.67;;;26.30;85.60;;;;;;4995208;28;20412;-77
2022/06/05 09:28:24;;;;;;;3.60;3.30;;;26.70;83.80;;;;;;4995331;28;20416;-77
2022/06/05 09:30:55;;;;;;;5.10;3.13;;;27.30;81.80;;;;;;4995609;28;20475;-76
2022/06/05 09:33:30;;;;;;;9.53;4.23;;;26.80;82.70;;;;;;4995492;28;20416;-76
2022/06/05 09:36:04;;;;;;;4.57;3.80;;;26.50;82.70;;;;;;4995596;28;20427;-76
2022/06/05 09:38:44;;;;;;;4.63;3.40;;;26.50;84.10;;;;;;4995079;28;20462;-77
2022/06/05 09:41:24;;;;;;;9.20;3.67;;;26.00;84.60;;;;;;4979409;28;20443;-76
2022/06/05 09:44:15;;;;;;;4.47;3.40;;;26.00;85.50;;;;;;4958572;28;20417;-76
2022/06/05 09:46:56;;;;;;;4.40;4.00;;;25.70;85.60;;;;;;4975669;28;20449;-77
2022/06/05 09:49:34;;;;;;;3.90;3.60;;;25.60;85.40;;;;;;4975272;28;20781;-76
2022/06/05 09:52:20;;;;;;;5.67;4.13;;;25.80;85.40;;;;;;4975933;28;20456;-78
2022/06/05 09:55:06;;;;;;;4.20;3.90;;;26.20;86.40;;;;;;4975952;28;20866;-78
2022/06/05 10:00:42;;;;;;;12.03;4.00;;;26.00;84.70;;;;;;4985343;28;20454;-78
2022/06/05 10:03:20;;;;;;;12.77;4.03;;;26.10;85.20;;;;;;4994530;28;20420;-78
2022/06/05 10:06:17;;;;;;;8.23;2.60;;;26.40;85.30;;;;;;4995097;28;20451;-79
2022/06/05 10:09:13;;;;;;;3.67;2.63;;;26.10;80.60;;;;;;4977192;28;20432;-77
2022/06/05 10:11:57;;;;;;;3.23;2.93;;;26.10;81.20;;;;;;4988348;28;20475;-79
2022/06/05 10:14:26;;;;;;;3.30;3.00;;;26.00;83.10;;;;;;4977525;28;20449;-76
2022/06/05 10:17:29;;;;;;;2.90;2.60;;;26.30;81.00;;;;;;4995481;28;20400;-78
2022/06/05 10:20:06;;;;;;;3.10;2.70;;;26.50;80.70;;;;;;5000336;28;20463;-76
2022/06/05 10:32:51;;;;;;;2.90;2.60;;;25.30;82.70;;;;;;5446876;23;20488;-77
2022/06/05 10:35:44;;;;;;;3.90;2.77;;;25.70;83.80;;;;;;4993570;28;20761;-77
2022/06/05 10:38:31;;;;;;;2.97;2.47;;;26.10;81.10;;;;;;4993799;28;20466;-76
2022/06/05 10:41:22;;;;;;;7.83;2.50;;;26.10;81.10;;;;;;4994249;28;20770;-76
2022/06/05 10:44:20;;;;;;;2.77;2.53;;;26.00;80.50;;;;;;4994135;28;20412;-76
2022/06/05 10:47:19;;;;;;;4.10;2.50;;;26.20;83.10;;;;;;4981582;28;20441;-76
2022/06/05 10:49:58;;;;;;;7.53;2.60;;;26.50;79.50;;;;;;4967991;28;20426;-76
2022/06/05 11:00:27;;;;;;;3.50;3.20;;;25.80;81.90;;;;;;4977112;23;20489;-78
2022/06/05 11:03:25;;;;;;;3.63;3.33;;;25.80;83.50;;;;;;4956509;29;20517;-78
2022/06/05 11:06:25;;;;;;;4.90;3.10;;;26.00;83.30;;;;;;4956474;29;20776;-78
2022/06/05 11:09:26;;;;;;;3.07;2.80;;;25.90;83.00;;;;;;4955765;29;20421;-77
2022/06/05 11:15:24;;;;;;;3.53;3.23;;;26.30;83.80;;;;;;4955939;29;20437;-78
2022/06/05 11:18:26;;;;;;;3.50;3.20;;;26.50;83.60;;;;;;4938369;29;20425;-78
2022/06/05 11:20:58;;;;;;;3.53;3.27;;;26.20;83.20;;;;;;4955473;28;20437;-76
2022/06/05 11:23:32;;;;;;;3.30;3.10;;;26.30;81.60;;;;;;4955903;29;20910;-78
2022/06/05 11:26:26;;;;;;;3.33;3.13;;;26.70;81.10;;;;;;4955916;29;20869;-78
2022/06/05 11:29:12;;;;;;;3.70;3.30;;;26.50;83.30;;;;;;4955660;29;20418;-78
2022/06/05 11:31:42;;;;;;;3.80;3.00;;;26.10;84.00;;;;;;4956121;29;20465;-76
2022/06/05 11:34:32;;;;;;;3.50;3.20;;;26.50;82.00;;;;;;4952530;29;20592;-76
2022/06/05 11:37:17;;;;;;;7.50;3.17;;;26.70;81.80;;;;;;4950253;29;20408;-74
2022/06/05 11:40:06;;;;;;;3.50;3.20;;;26.20;82.80;;;;;;4952535;29;20464;-75
2022/06/05 11:42:54;;;;;;;5.33;3.43;;;25.90;82.90;;;;;;4933777;29;20608;-73
2022/06/05 11:45:38;;;;;;;3.40;2.97;;;25.40;84.90;;;;;;4935495;29;20407;-73
2022/06/05 11:48:09;;;;;;;5.43;3.40;;;25.30;84.00;;;;;;4918101;29;20423;-74
2022/06/05 11:50:47;;;;;;;9.43;3.93;;;25.30;83.60;;;;;;4935139;29;20569;-76
2022/06/05 11:53:30;;;;;;;3.93;3.53;;;25.30;85.20;;;;;;4953847;29;20402;-77
2022/06/05 11:56:23;;;;;;;6.47;3.40;;;25.60;83.90;;;;;;4937228;29;20418;-75
2022/06/05 11:59:24;;;;;;;3.43;3.13;;;25.20;84.40;;;;;;4938470;29;20485;-74
2022/06/05 12:02:24;;;;;;;5.20;2.50;;;25.00;85.40;;;;;;4894980;29;20452;-75
2022/06/05 12:04:59;;;;;;;3.67;3.23;;;25.20;84.50;;;;;;4954149;29;20988;-75
2022/06/05 12:07:27;;;;;;;5.83;3.60;;;24.90;84.50;;;;;;4954933;28;20407;-74
2022/06/05 12:09:56;;;;;;;4.00;3.40;;;25.20;86.30;;;;;;4953358;29;20422;-73
2022/06/05 12:12:22;;;;;;;3.80;3.50;;;25.10;85.90;;;;;;4953896;29;20434;-73
2022/06/05 12:15:02;;;;;;;4.97;3.10;;;25.20;85.10;;;;;;4953875;29;20423;-75
2022/06/05 12:17:42;;;;;;;5.03;3.20;;;25.70;84.00;;;;;;4954294;29;20170;-76
2022/06/05 12:20:29;;;;;;;5.07;3.13;;;25.70;83.10;;;;;;4954422;29;20406;-73
2022/06/05 12:23:21;;;;;;;4.83;3.67;;;25.80;85.80;;;;;;4936470;29;20481;-73
2022/06/05 12:25:57;;;;;;;3.83;3.47;;;26.20;83.10;;;;;;4953880;29;20417;-75
2022/06/05 12:28:34;;;;;;;4.50;3.43;;;25.80;83.30;;;;;;4952884;29;20430;-74
2022/06/05 12:31:14;;;;;;;6.00;4.00;;;25.90;83.20;;;;;;4953778;29;20478;-78
2022/06/05 12:33:54;;;;;;;4.93;3.57;;;25.80;82.70;;;;;;4953387;29;20456;-75
2022/06/05 12:36:44;;;;;;;8.97;3.87;;;25.60;83.50;;;;;;4954033;29;20458;-76
2022/06/05 12:39:33;;;;;;;4.43;3.60;;;25.70;84.50;;;;;;4953549;29;20922;-74
2022/06/05 12:42:19;;;;;;;4.43;3.50;;;25.70;82.10;;;;;;4953728;29;20462;-76
2022/06/05 12:44:57;;;;;;;7.23;2.90;;;25.60;82.50;;;;;;4942902;29;20516;-79
2022/06/05 12:47:52;;;;;;;6.00;3.30;;;25.70;84.40;;;;;;4953591;29;20415;-78
2022/06/05 12:50:51;;;;;;;5.60;3.80;;;26.20;82.00;;;;;;4936313;29;20548;-76
2022/06/05 12:53:27;;;;;;;4.13;2.90;;;26.60;81.10;;;;;;4953607;29;20414;-77
2022/06/05 12:56:21;;;;;;;3.60;3.30;;;26.50;80.70;;;;;;4953545;29;20424;-76
2022/06/05 12:59:17;;;;;;;5.70;2.70;;;26.70;80.40;;;;;;4952525;29;20437;-76
2022/06/05 13:02:17;;;;;;;3.30;3.00;;;26.40;78.40;;;;;;4953576;29;20641;-77
2022/06/05 13:04:57;;;;;;;6.13;3.10;;;26.10;79.60;;;;;;4953620;29;20402;-76
2022/06/05 13:07:32;;;;;;;3.70;3.30;;;26.10;82.50;;;;;;4953217;29;20413;-75
2022/06/05 13:10:16;;;;;;;6.10;3.33;;;25.80;81.00;;;;;;4953431;29;20413;-75
2022/06/05 13:12:54;;;;;;;3.60;3.20;;;25.40;81.20;;;;;;4953028;29;20938;-76
2022/06/05 13:15:29;;;;;;;4.20;3.67;;;25.30;82.80;;;;;;4953371;29;20448;-75
2022/06/05 13:18:01;;;;;;;4.60;3.50;;;25.30;81.70;;;;;;4935744;29;20398;-75
2022/06/05 13:20:55;;;;;;;4.63;3.33;;;25.50;83.00;;;;;;4953413;29;20485;-75
2022/06/05 13:23:53;;;;;;;3.30;3.10;;;26.00;80.20;;;;;;4953475;29;20391;-76
2022/06/05 13:26:47;;;;;;;3.60;3.30;;;25.90;82.50;;;;;;4953347;29;20477;-75
2022/06/05 13:29:37;;;;;;;3.27;2.97;;;25.80;83.20;;;;;;4952949;29;20449;-76
2022/06/05 13:32:15;;;;;;;3.50;3.20;;;25.90;82.70;;;;;;4953151;29;20488;-76
2022/06/05 13:34:47;;;;;;;5.97;3.43;;;25.90;82.20;;;;;;4953313;29;20406;-75
2022/06/05 13:37:21;;;;;;;4.67;3.40;;;25.70;82.70;;;;;;4953234;29;20784;-76
2022/06/05 13:40:06;;;;;;;7.17;3.40;;;25.40;81.60;;;;;;4953116;29;20414;-73
2022/06/05 13:42:36;;;;;;;4.30;3.90;;;25.30;83.00;;;;;;4953139;29;20441;-74
2022/06/05 13:45:12;;;;;;;3.50;3.20;;;25.00;83.60;;;;;;4956556;28;20429;-74
2022/06/05 13:48:16;;;;;;;3.33;3.13;;;25.30;83.00;;;;;;4956107;29;20485;-73
2022/06/05 13:50:57;;;;;;;7.53;3.30;;;25.50;83.40;;;;;;4956481;29;20469;-75
2022/06/05 13:53:26;;;;;;;3.40;3.00;;;25.70;83.10;;;;;;4956706;29;20406;-74
2022/06/05 13:56:03;;;;;;;3.00;2.80;;;25.70;81.90;;;;;;4956517;29;21022;-74
2022/06/05 13:58:57;;;;;;;4.93;3.27;;;25.70;80.70;;;;;;4971103;28;20555;-76
2022/06/05 14:01:38;;;;;;;3.77;3.10;;;25.80;82.20;;;;;;4975694;28;20440;-77
2022/06/05 14:04:20;;;;;;;11.43;3.07;;;25.90;82.10;;;;;;4962218;28;20417;-77
2022/06/05 14:06:51;;;;;;;5.70;2.73;;;25.90;82.80;;;;;;4960299;29;20445;-80
2022/06/05 14:09:48;;;;;;;4.83;2.97;;;25.60;81.70;;;;;;4959671;29;20418;-80
2022/06/05 14:12:23;;;;;;;3.83;2.83;;;25.60;81.60;;;;;;4959123;29;20489;-78
2022/06/05 14:14:49;;;;;;;3.93;2.90;;;25.20;80.90;;;;;;4959427;29;20449;-79
2022/06/05 14:17:26;;;;;;;3.07;2.87;;;25.00;82.60;;;;;;4941862;29;20418;-80
2022/06/05 14:20:23;;;;;;;3.10;2.80;;;25.00;82.70;;;;;;4960400;29;20221;-80
2022/06/05 14:22:54;;;;;;;6.73;2.77;;;24.90;83.00;;;;;;4959467;29;20419;-80
2022/06/05 14:25:40;;;;;;;3.10;2.80;;;24.70;83.30;;;;;;4960254;29;20410;-80
2022/06/05 14:28:09;;;;;;;3.60;3.30;;;24.50;82.60;;;;;;4958739;29;20417;-80
2022/06/05 14:30:50;;;;;;;3.67;2.97;;;24.50;82.80;;;;;;4957879;29;20466;-77
2022/06/05 14:33:19;;;;;;;6.77;2.90;;;24.40;82.20;;;;;;4957602;29;20501;-80
2022/06/05 14:35:52;;;;;;;3.33;2.90;;;24.40;83.80;;;;;;4960380;29;20426;-79
2022/06/05 14:38:42;;;;;;;3.33;3.10;;;24.60;83.50;;;;;;4959571;29;20411;-79
2022/06/05 14:41:22;;;;;;;3.40;3.10;;;24.80;84.70;;;;;;4959808;29;20441;-80
2022/06/05 14:43:57;;;;;;;4.10;2.90;;;25.10;84.20;;;;;;4939455;29;20785;-77
2022/06/05 14:46:46;;;;;;;3.20;2.90;;;25.10;82.50;;;;;;4955063;29;20421;-78
2022/06/05 14:49:38;;;;;;;3.00;2.80;;;25.10;81.70;;;;;;4953288;29;20411;-78
2022/06/05 14:52:32;;;;;;;2.97;2.77;;;25.00;83.60;;;;;;4952632;29;20466;-78
2022/06/05 14:58:08;;;;;;;4.40;2.97;;;24.70;83.70;;;;;;4954842;29;20418;-77
2022/06/05 15:00:53;;;;;;;2.53;2.30;;;24.80;82.70;;;;;;4955118;29;20962;-77
2022/06/05 15:03:45;;;;;;;2.77;2.57;;;24.60;83.20;;;;;;4955273;29;20425;-77
2022/06/05 15:06:13;;;;;;;2.63;2.43;;;24.30;83.20;;;;;;4955143;28;20411;-78
2022/06/05 15:09:04;;;;;;;8.73;2.90;;;24.30;84.00;;;;;;4955249;28;20501;-77
2022/06/05 15:11:48;;;;;;;5.07;3.07;;;24.30;84.20;;;;;;4936373;28;20525;-78
2022/06/05 15:14:35;;;;;;;2.93;2.73;;;24.30;84.30;;;;;;4946754;29;20418;-78
2022/06/05 15:17:29;;;;;;;3.53;2.50;;;24.30;84.00;;;;;;4955518;29;20917;-78
2022/06/05 15:19:58;;;;;;;6.10;2.97;;;24.30;84.60;;;;;;4928766;29;20510;-78
2022/06/05 15:22:53;;;;;;;4.20;2.87;;;24.30;84.20;;;;;;4944050;29;20474;-78
2022/06/05 15:25:42;;;;;;;5.87;3.00;;;24.40;84.90;;;;;;4945743;29;20415;-78
2022/06/05 15:28:34;;;;;;;3.50;3.20;;;24.40;84.60;;;;;;4945689;29;20994;-78
2022/06/05 15:31:11;;;;;;;2.97;2.70;;;24.40;84.20;;;;;;4952211;29;20474;-78
2022/06/05 15:33:40;;;;;;;3.20;2.90;;;24.40;84.30;;;;;;4955446;29;20406;-78
2022/06/05 15:36:18;;;;;;;5.83;4.03;;;24.40;84.10;;;;;;4955643;29;20941;-78
2022/06/05 15:38:49;;;;;;;7.20;3.60;;;24.40;84.60;;;;;;4955678;29;20910;-78
2022/06/05 15:41:33;;;;;;;3.67;2.80;;;24.20;84.90;;;;;;4956118;29;20426;-78
2022/06/05 15:44:34;;;;;;;4.00;2.70;;;24.30;86.00;;;;;;4954792;29;20465;-78
2022/06/05 15:47:12;;;;;;;3.83;3.47;;;24.10;85.10;;;;;;4937747;29;20973;-78
2022/06/05 15:49:38;;;;;;;2.70;2.40;;;24.10;85.80;;;;;;4938696;29;20445;-78
2022/06/05 15:52:38;;;;;;;3.17;2.90;;;24.00;86.10;;;;;;4954765;29;20974;-78
2022/06/05 15:55:03;;;;;;;3.03;2.80;;;23.80;86.60;;;;;;4956999;29;20186;-79
2022/06/05 16:00:27;;;;;;;6.20;3.03;;;23.60;86.80;;;;;;4958284;29;20237;-79
2022/06/05 16:03:01;;;;;;;2.83;2.53;;;23.60;87.70;;;;;;4941854;29;20412;-79
2022/06/05 16:05:40;;;;;;;4.87;3.47;;;23.60;87.30;;;;;;4937540;29;20908;-78
2022/06/05 16:08:32;;;;;;;2.80;2.60;;;23.60;88.00;;;;;;4936955;29;20408;-77
2022/06/05 16:11:08;;;;;;;3.30;2.80;;;23.70;88.00;;;;;;4937516;29;20470;-78
2022/06/05 16:13:42;;;;;;;8.07;2.90;;;23.80;87.80;;;;;;4952842;29;21006;-78
2022/06/05 16:16:23;;;;;;;3.33;2.80;;;23.80;88.30;;;;;;4952916;29;20801;-78
2022/06/05 16:19:10;;;;;;;3.23;2.60;;;23.70;88.90;;;;;;4947622;29;20461;-78
2022/06/05 16:21:50;;;;;;;4.37;3.30;;;23.70;86.90;;;;;;4926006;29;20443;-77
2022/06/05 16:24:18;;;;;;;4.30;2.70;;;23.70;87.90;;;;;;4951969;29;20517;-77
2022/06/05 16:27:07;;;;;;;5.13;3.40;;;23.50;88.50;;;;;;4953666;29;20497;-78
2022/06/05 16:29:39;;;;;;;3.60;3.20;;;23.50;89.80;;;;;;4952529;29;20418;-79
2022/06/05 16:32:28;;;;;;;5.20;3.67;;;23.50;89.80;;;;;;4953134;29;20524;-78
2022/06/05 16:37:53;;;;;;;3.23;2.97;;;23.40;88.70;;;;;;4948410;29;20453;-78
2022/06/05 16:40:29;;;;;;;3.43;3.20;;;23.40;89.80;;;;;;4951726;29;20429;-79
2022/06/05 16:43:18;;;;;;;4.53;3.43;;;23.40;90.00;;;;;;4953558;29;20444;-78
2022/06/05 16:45:54;;;;;;;3.80;3.47;;;23.50;91.80;;;;;;4953761;29;20422;-79
2022/06/05 16:48:23;;;;;;;3.63;3.30;;;23.60;93.10;;;;;;4953625;29;20446;-79
2022/06/05 16:50:53;;;;;;;4.10;3.70;;;23.50;93.40;;;;;;4950605;29;20975;-78
2022/06/05 16:53:54;;;;;;;4.50;3.93;;;23.50;92.90;;;;;;4934823;29;20415;-78
2022/06/05 16:56:22;;;;;;;7.00;3.30;;;23.50;94.50;;;;;;4905906;29;20602;-78
2022/06/05 16:59:00;;;;;;;4.73;3.53;;;23.50;92.60;;;;;;4953589;29;20434;-77
2022/06/05 17:01:29;;;;;;;3.60;3.30;;;23.50;92.60;;;;;;4955583;29;20469;-78
2022/06/05 17:04:08;;;;;;;4.33;3.30;;;23.50;91.90;;;;;;4956474;29;20784;-78
2022/06/05 17:06:47;;;;;;;9.17;3.17;;;23.20;92.50;;;;;;4955328;29;20756;-79
2022/06/05 17:09:18;;;;;;;4.37;3.93;;;23.10;93.70;;;;;;4955303;29;20429;-79
2022/06/05 17:11:58;;;;;;;6.47;5.87;;;22.90;93.30;;;;;;4937457;29;20501;-78
2022/06/05 17:14:35;;;;;;;10.53;8.53;;;22.80;94.20;;;;;;4955003;29;20410;-79
2022/06/05 17:17:01;;;;;;;5.57;5.07;;;22.80;94.60;;;;;;4955480;29;20478;-79
2022/06/05 17:19:40;;;;;;;5.60;5.10;;;22.80;95.10;;;;;;4940162;29;20859;-78
2022/06/05 17:22:28;;;;;;;8.33;5.80;;;22.70;95.50;;;;;;4959470;29;20199;-79
2022/06/05 17:25:03;;;;;;;6.63;4.37;;;22.70;95.60;;;;;;4958466;29;20505;-78
2022/06/05 17:28:21;;;;;;;3.90;3.60;;;22.60;96.30;;;;;;4958208;29;20413;-79
2022/06/05 17:30:57;;;;;;;7.90;3.87;;;22.40;96.30;;;;;;4861053;29;20566;-79
2022/06/05 17:33:39;;;;;;;4.27;3.87;;;22.30;96.30;;;;;;4861256;29;20426;-79
2022/06/05 17:36:26;;;;;;;4.47;4.03;;;22.30;96.30;;;;;;4932593;29;20922;-79
2022/06/05 17:39:17;;;;;;;3.87;3.50;;;22.30;96.30;;;;;;4957895;29;20414;-79
2022/06/05 17:42:12;;;;;;;3.73;3.43;;;22.20;96.30;;;;;;4957394;29;20434;-79
2022/06/05 17:45:10;;;;;;;3.93;3.63;;;22.20;96.30;;;;;;4939938;29;20857;-80
2022/06/05 17:47:53;;;;;;;4.40;4.00;;;22.10;96.30;;;;;;4939793;29;20438;-79
2022/06/05 17:50:19;;;;;;;3.40;3.10;;;22.00;96.30;;;;;;4957800;29;20413;-79
2022/06/05 17:52:55;;;;;;;4.37;4.00;;;22.00;96.30;;;;;;4939560;29;20410;-79
2022/06/05 17:55:26;;;;;;;4.10;3.80;;;21.90;96.30;;;;;;4958262;29;20163;-79
2022/06/05 17:58:00;;;;;;;4.07;3.77;;;21.90;96.30;;;;;;4957484;29;20391;-78
2022/06/05 18:00:26;;;;;;;6.67;4.47;;;21.80;96.30;;;;;;4956879;29;20502;-79
2022/06/05 18:02:59;;;;;;;10.20;6.50;;;21.80;96.30;;;;;;4958641;29;20442;-79
2022/06/05 18:05:38;;;;;;;5.40;4.87;;;21.70;96.30;;;;;;4941800;29;20407;-80
2022/06/05 18:08:19;;;;;;;4.63;4.23;;;21.50;96.30;;;;;;4959835;29;20429;-80
2022/06/05 18:10:57;;;;;;;5.23;4.73;;;21.40;96.30;;;;;;4944029;29;20500;-80
2022/06/05 18:13:33;;;;;;;4.60;4.20;;;21.30;96.30;;;;;;4959423;29;20407;-80
2022/06/05 18:16:02;;;;;;;5.27;4.37;;;21.30;96.30;;;;;;4959239;29;20390;-80